Time;durP1;ratioP1;P1;durP2;ratioP2;P2;SDS_P1;SDS_P2;PMS_P1;PMS_P2;Temp;Humidity;BMP_temperature;BMP_pressure;BME280_temperature;BME280_humidity;BME280_pressure;Samples;Min_cycle;Max_cycle;Signal;HPM_P1;HPM_P2
2021/10/19 00:00:04;;;;;;;6.38;3.63;;;18.30;94.60;;;;;;5043301;28;20037;-75
2021/10/19 00:02:30;;;;;;;12.32;4.22;;;18.30;94.70;;;;;;5062560;28;20024;-75
2021/10/19 00:04:56;;;;;;;8.07;4.10;;;18.30;94.60;;;;;;5069783;28;20382;-75
2021/10/19 00:07:22;;;;;;;11.02;4.22;;;18.30;94.70;;;;;;5057751;28;20085;-76
2021/10/19 00:09:47;;;;;;;10.13;4.15;;;18.30;94.50;;;;;;5071866;28;20029;-74
2021/10/19 00:12:13;;;;;;;8.20;4.50;;;18.30;95.00;;;;;;5071796;28;20496;-75
2021/10/19 00:14:39;;;;;;;8.77;4.45;;;18.30;94.60;;;;;;5071358;28;20028;-76
2021/10/19 00:17:04;;;;;;;7.80;4.07;;;18.30;94.60;;;;;;5071334;28;20028;-75
2021/10/19 00:19:30;;;;;;;9.23;4.30;;;18.30;94.70;;;;;;5078420;28;20064;-76
2021/10/19 00:21:56;;;;;;;9.30;4.57;;;18.30;94.70;;;;;;5073855;28;20031;-75
2021/10/19 00:24:21;;;;;;;8.85;4.60;;;18.30;94.60;;;;;;5071678;28;20024;-74
2021/10/19 00:26:47;;;;;;;9.98;4.78;;;18.30;94.60;;;;;;5044650;28;20562;-74
2021/10/19 00:29:12;;;;;;;8.02;4.47;;;18.30;94.70;;;;;;5064098;28;20025;-75
2021/10/19 00:31:38;;;;;;;8.55;4.57;;;18.30;94.60;;;;;;5053212;28;20025;-75
2021/10/19 00:34:04;;;;;;;9.52;4.90;;;18.20;94.60;;;;;;5054930;28;20537;-75
2021/10/19 00:36:29;;;;;;;8.75;4.90;;;18.20;94.60;;;;;;5071925;28;20048;-74
2021/10/19 00:38:55;;;;;;;9.63;4.80;;;18.20;94.60;;;;;;5070852;28;20041;-75
2021/10/19 00:41:22;;;;;;;11.70;5.03;;;18.20;94.70;;;;;;5071194;28;20067;-76
2021/10/19 00:43:49;;;;;;;8.48;4.60;;;18.30;95.10;;;;;;5070926;28;20027;-75
2021/10/19 00:46:14;;;;;;;6.68;4.65;;;18.20;94.70;;;;;;5053060;28;20020;-76
2021/10/19 00:48:42;;;;;;;5.10;4.20;;;18.20;94.70;;;;;;5071729;28;20126;-75
2021/10/19 00:51:10;;;;;;;8.93;4.30;;;18.30;94.60;;;;;;5080918;28;20508;-75
2021/10/19 00:53:36;;;;;;;10.05;4.88;;;18.20;94.60;;;;;;5075168;28;20028;-75
2021/10/19 00:56:01;;;;;;;11.43;5.10;;;18.20;94.60;;;;;;5050374;28;20024;-74
2021/10/19 00:58:27;;;;;;;9.82;4.75;;;18.20;94.60;;;;;;5055607;28;20059;-75
2021/10/19 01:00:53;;;;;;;12.27;5.18;;;18.30;94.70;;;;;;5071153;28;20066;-75
2021/10/19 01:03:18;;;;;;;6.80;4.47;;;18.20;94.70;;;;;;5058092;28;20025;-75
2021/10/19 01:05:44;;;;;;;9.27;5.10;;;18.20;94.70;;;;;;5049932;28;20033;-75
2021/10/19 01:08:10;;;;;;;7.80;4.18;;;18.20;94.70;;;;;;5070562;28;20024;-75
2021/10/19 01:10:39;;;;;;;8.35;4.68;;;18.20;94.70;;;;;;5052031;28;20464;-75
2021/10/19 01:13:06;;;;;;;7.57;4.32;;;18.20;94.60;;;;;;5054360;28;20485;-75
2021/10/19 01:15:34;;;;;;;9.90;4.65;;;18.20;94.60;;;;;;5071426;28;20504;-75
2021/10/19 01:18:00;;;;;;;11.88;5.20;;;18.20;94.70;;;;;;5069967;28;20036;-75
2021/10/19 01:20:30;;;;;;;10.77;5.00;;;18.20;94.60;;;;;;5074779;28;20028;-75
2021/10/19 01:22:57;;;;;;;6.53;4.45;;;18.20;94.60;;;;;;5052498;28;20104;-75
2021/10/19 01:25:25;;;;;;;7.97;4.85;;;18.20;94.80;;;;;;5070632;28;20036;-74
2021/10/19 01:27:56;;;;;;;7.63;4.40;;;18.20;94.60;;;;;;5070692;28;20534;-75
2021/10/19 01:30:23;;;;;;;8.15;4.47;;;18.20;94.70;;;;;;5040201;28;20029;-75
2021/10/19 01:32:49;;;;;;;9.40;4.72;;;18.20;94.70;;;;;;5058572;28;20516;-75
2021/10/19 01:35:15;;;;;;;10.63;5.20;;;18.20;94.70;;;;;;5045212;28;20122;-74
2021/10/19 01:37:42;;;;;;;7.80;5.18;;;18.20;94.70;;;;;;5070462;28;20031;-75
2021/10/19 01:40:15;;;;;;;9.52;5.22;;;18.20;94.70;;;;;;5070445;28;20082;-75
2021/10/19 01:42:41;;;;;;;10.38;6.00;;;18.20;94.70;;;;;;5067173;28;20052;-75
2021/10/19 01:45:15;;;;;;;7.70;5.25;;;18.20;94.70;;;;;;5070615;28;20036;-74
2021/10/19 01:47:41;;;;;;;8.55;5.55;;;18.20;94.60;;;;;;5070073;28;20516;-75
2021/10/19 01:50:08;;;;;;;9.88;5.90;;;18.20;94.70;;;;;;5071736;28;20048;-75
2021/10/19 01:52:34;;;;;;;9.07;6.10;;;18.20;94.70;;;;;;5083317;28;20025;-76
2021/10/19 01:55:00;;;;;;;10.52;6.15;;;18.20;94.70;;;;;;5054240;28;20029;-75
2021/10/19 01:57:26;;;;;;;10.10;6.70;;;18.30;94.70;;;;;;5053075;28;20500;-74
2021/10/19 01:59:51;;;;;;;12.93;7.55;;;18.20;94.60;;;;;;5070133;28;20036;-75
2021/10/19 02:02:17;;;;;;;10.70;6.68;;;18.20;94.60;;;;;;5052273;28;20036;-75
2021/10/19 02:04:43;;;;;;;10.07;7.50;;;18.20;94.60;;;;;;5070316;28;20033;-75
2021/10/19 02:07:08;;;;;;;10.57;7.05;;;18.20;94.60;;;;;;5035798;28;20459;-75
2021/10/19 02:09:34;;;;;;;9.90;7.68;;;18.20;94.50;;;;;;5048677;28;20040;-75
2021/10/19 02:12:00;;;;;;;11.13;8.23;;;18.30;94.50;;;;;;5041771;28;20079;-75
2021/10/19 02:14:25;;;;;;;12.15;8.07;;;18.20;94.60;;;;;;5060429;28;20108;-75
2021/10/19 02:16:51;;;;;;;9.88;7.38;;;18.30;94.60;;;;;;5051194;28;20056;-75
2021/10/19 02:19:17;;;;;;;9.70;7.53;;;18.30;94.50;;;;;;5054910;28;20028;-75
2021/10/19 02:21:43;;;;;;;9.80;7.53;;;18.30;94.50;;;;;;5054231;28;20021;-75
2021/10/19 02:24:09;;;;;;;9.25;7.50;;;18.30;94.60;;;;;;5061857;28;20031;-75
2021/10/19 02:26:35;;;;;;;12.10;7.72;;;18.30;94.60;;;;;;5071012;28;20062;-76
2021/10/19 02:29:01;;;;;;;12.05;7.80;;;18.30;94.50;;;;;;5075623;28;20052;-75
2021/10/19 02:31:26;;;;;;;11.10;7.85;;;18.30;94.40;;;;;;5061637;28;20062;-75
2021/10/19 02:33:52;;;;;;;9.40;6.78;;;18.40;94.50;;;;;;5058168;28;20063;-75
2021/10/19 02:36:19;;;;;;;13.02;8.30;;;18.30;94.30;;;;;;5073845;28;20107;-75
2021/10/19 02:38:44;;;;;;;11.55;7.55;;;18.30;94.40;;;;;;5073438;28;20128;-74
2021/10/19 02:41:10;;;;;;;12.65;7.25;;;18.30;94.40;;;;;;5052021;28;20156;-74
2021/10/19 02:43:35;;;;;;;12.05;7.25;;;18.30;94.40;;;;;;5061032;28;20070;-75
2021/10/19 02:46:01;;;;;;;10.02;7.40;;;18.30;94.30;;;;;;5073057;28;20036;-75
2021/10/19 02:48:27;;;;;;;14.90;7.93;;;18.30;94.40;;;;;;5074029;28;20092;-74
2021/10/19 02:50:52;;;;;;;13.10;7.63;;;18.30;94.30;;;;;;5081148;28;20031;-75
2021/10/19 02:53:18;;;;;;;10.52;7.03;;;18.30;94.30;;;;;;5079909;28;20024;-75
2021/10/19 02:55:43;;;;;;;10.30;6.88;;;18.30;94.30;;;;;;5072942;28;20036;-75
2021/10/19 02:58:09;;;;;;;11.70;7.72;;;18.30;94.30;;;;;;5057646;28;20020;-75
2021/10/19 03:00:35;;;;;;;7.57;6.25;;;18.30;94.30;;;;;;5058153;28;20447;-74
2021/10/19 03:03:01;;;;;;;13.15;7.57;;;18.30;94.30;;;;;;5072159;28;20040;-75
2021/10/19 03:05:27;;;;;;;10.85;6.97;;;18.30;94.30;;;;;;5072935;28;20028;-75
2021/10/19 03:07:52;;;;;;;11.07;6.18;;;18.30;94.20;;;;;;5073210;28;20485;-75
2021/10/19 03:10:18;;;;;;;11.48;6.20;;;18.30;94.30;;;;;;5073083;28;20036;-74
2021/10/19 03:12:44;;;;;;;8.60;6.22;;;18.30;94.30;;;;;;5073201;28;20030;-76
2021/10/19 03:15:09;;;;;;;9.93;6.93;;;18.30;94.30;;;;;;5060542;28;20029;-76
2021/10/19 03:17:35;;;;;;;10.63;6.65;;;18.30;94.30;;;;;;5064551;28;20564;-76
2021/10/19 03:20:01;;;;;;;10.10;6.45;;;18.30;94.40;;;;;;5070368;28;20485;-74
2021/10/19 03:22:26;;;;;;;9.40;6.10;;;18.30;94.30;;;;;;5059057;28;20056;-75
2021/10/19 03:24:52;;;;;;;9.60;6.38;;;18.30;94.20;;;;;;5072906;28;20373;-75
2021/10/19 03:27:18;;;;;;;8.90;6.55;;;18.30;94.20;;;;;;5072869;28;20049;-74
2021/10/19 03:29:43;;;;;;;12.48;8.27;;;18.30;94.30;;;;;;5072129;28;20052;-76
2021/10/19 03:32:10;;;;;;;9.65;6.07;;;18.30;94.30;;;;;;5072512;28;20102;-76
2021/10/19 03:34:36;;;;;;;7.05;5.82;;;18.30;94.20;;;;;;5071705;28;20028;-76
2021/10/19 03:37:02;;;;;;;8.13;6.10;;;18.30;94.30;;;;;;5072254;28;20867;-76
2021/10/19 03:39:27;;;;;;;8.15;5.95;;;18.30;94.30;;;;;;5058814;28;20045;-75
2021/10/19 03:41:53;;;;;;;7.72;5.70;;;18.30;94.30;;;;;;5070593;28;20062;-76
2021/10/19 03:44:18;;;;;;;9.18;5.80;;;18.20;94.20;;;;;;5071714;28;20078;-76
2021/10/19 03:46:44;;;;;;;7.90;5.78;;;18.30;94.30;;;;;;5054245;28;20021;-76
2021/10/19 03:49:10;;;;;;;7.40;6.18;;;18.20;94.10;;;;;;5056376;28;20448;-76
2021/10/19 03:51:35;;;;;;;7.80;5.93;;;18.20;94.20;;;;;;5086282;28;20069;-76
2021/10/19 03:54:01;;;;;;;9.20;6.07;;;18.20;94.30;;;;;;5072655;28;20064;-76
2021/10/19 03:56:27;;;;;;;9.20;5.85;;;18.20;94.70;;;;;;5071768;28;20028;-76
2021/10/19 03:58:53;;;;;;;7.88;5.15;;;18.20;94.30;;;;;;5071434;28;20117;-76
2021/10/19 04:01:18;;;;;;;9.63;5.60;;;18.20;94.20;;;;;;5053954;28;20393;-75
2021/10/19 04:03:44;;;;;;;7.47;5.43;;;18.20;94.20;;;;;;5038000;28;20329;-76
2021/10/19 04:06:12;;;;;;;7.97;5.85;;;18.20;94.20;;;;;;5072241;28;20024;-76
2021/10/19 04:08:38;;;;;;;7.97;5.22;;;18.20;94.30;;;;;;5072070;28;20016;-76
2021/10/19 04:11:04;;;;;;;6.93;5.40;;;18.20;94.30;;;;;;5071499;28;20078;-75
2021/10/19 04:13:30;;;;;;;8.18;4.75;;;18.20;94.30;;;;;;5071318;28;20024;-76
2021/10/19 04:15:55;;;;;;;6.20;4.82;;;18.20;94.30;;;;;;5071736;28;20032;-76
2021/10/19 04:18:21;;;;;;;6.13;5.05;;;18.20;94.30;;;;;;5056717;28;20120;-76
2021/10/19 04:20:47;;;;;;;6.35;4.63;;;18.20;94.10;;;;;;5065004;28;20428;-75
2021/10/19 04:23:12;;;;;;;8.32;5.10;;;18.20;94.20;;;;;;5067609;28;20104;-76
2021/10/19 04:25:39;;;;;;;7.35;4.80;;;18.20;94.20;;;;;;5059351;28;20024;-76
2021/10/19 04:28:05;;;;;;;6.53;4.50;;;18.20;94.10;;;;;;5053613;28;20078;-76
2021/10/19 04:30:32;;;;;;;7.13;4.88;;;18.10;94.20;;;;;;5072608;28;20052;-76
2021/10/19 04:32:58;;;;;;;6.63;4.55;;;18.20;94.50;;;;;;5071870;28;20487;-75
2021/10/19 04:35:24;;;;;;;5.57;4.07;;;18.20;94.30;;;;;;5071638;28;20111;-76
2021/10/19 04:37:49;;;;;;;4.97;4.35;;;18.20;94.20;;;;;;5071641;28;20016;-76
2021/10/19 04:40:15;;;;;;;6.63;4.60;;;18.10;94.20;;;;;;5071254;28;20570;-76
2021/10/19 04:42:41;;;;;;;9.77;4.93;;;18.10;94.10;;;;;;5072558;28;20029;-76
2021/10/19 04:45:08;;;;;;;6.65;4.63;;;18.10;94.30;;;;;;5060345;28;20473;-76
2021/10/19 04:47:33;;;;;;;7.38;4.78;;;18.10;94.00;;;;;;5067021;28;20024;-76
2021/10/19 04:49:59;;;;;;;8.32;5.13;;;18.00;94.10;;;;;;5071851;28;20026;-75
2021/10/19 04:52:26;;;;;;;8.82;5.47;;;17.90;94.10;;;;;;5085724;28;20103;-75
2021/10/19 04:54:53;;;;;;;8.27;5.20;;;17.90;94.20;;;;;;5079998;28;20065;-76
2021/10/19 04:57:19;;;;;;;10.20;5.20;;;17.90;94.10;;;;;;5074296;28;20066;-76
2021/10/19 04:59:44;;;;;;;6.13;4.78;;;17.80;94.10;;;;;;5071520;28;20451;-75
2021/10/19 05:02:10;;;;;;;8.73;5.07;;;17.80;94.20;;;;;;5054810;28;20021;-75
2021/10/19 05:04:36;;;;;;;7.20;5.40;;;17.80;94.40;;;;;;5071899;28;20099;-76
2021/10/19 05:07:01;;;;;;;7.03;4.80;;;17.80;94.30;;;;;;5038067;28;20409;-76
2021/10/19 05:09:27;;;;;;;8.00;5.45;;;17.80;94.80;;;;;;5058551;28;20447;-76
2021/10/19 05:11:53;;;;;;;7.97;5.18;;;17.80;94.40;;;;;;5070194;28;20024;-76
2021/10/19 05:14:18;;;;;;;9.93;5.25;;;17.80;94.30;;;;;;5071894;28;20260;-76
2021/10/19 05:16:44;;;;;;;6.55;5.13;;;17.80;94.30;;;;;;5072766;28;20021;-75
2021/10/19 05:19:09;;;;;;;7.15;4.60;;;17.80;94.40;;;;;;5055780;28;20556;-76
2021/10/19 05:21:35;;;;;;;5.20;4.60;;;17.80;94.40;;;;;;5072575;28;20100;-76
2021/10/19 05:24:01;;;;;;;8.50;4.95;;;17.70;94.20;;;;;;5071288;28;20103;-76
2021/10/19 05:26:26;;;;;;;8.10;4.80;;;17.80;94.60;;;;;;5047326;28;20029;-75
2021/10/19 05:28:52;;;;;;;8.57;4.40;;;17.80;94.30;;;;;;5060866;28;20048;-76
2021/10/19 05:31:18;;;;;;;5.72;4.70;;;17.80;94.30;;;;;;5070829;28;20036;-75
2021/10/19 05:33:43;;;;;;;5.80;4.40;;;17.70;94.20;;;;;;5071485;28;20637;-74
2021/10/19 05:36:09;;;;;;;8.27;4.90;;;17.70;94.70;;;;;;5048818;28;20040;-75
2021/10/19 05:38:34;;;;;;;6.45;4.57;;;17.70;94.20;;;;;;5062798;28;20132;-75
2021/10/19 05:41:01;;;;;;;6.80;4.30;;;17.70;94.30;;;;;;5043265;28;20064;-75
2021/10/19 05:43:27;;;;;;;8.88;5.13;;;17.70;94.50;;;;;;5052812;28;20116;-75
2021/10/19 05:45:52;;;;;;;6.32;4.63;;;17.70;94.30;;;;;;5037034;28;20120;-75
2021/10/19 05:48:18;;;;;;;8.52;4.90;;;17.70;94.40;;;;;;5071199;28;20024;-75
2021/10/19 05:50:43;;;;;;;7.63;5.00;;;17.70;94.60;;;;;;5077397;28;20043;-75
2021/10/19 05:53:10;;;;;;;5.68;4.53;;;17.70;94.40;;;;;;5078339;28;20036;-75
2021/10/19 05:55:37;;;;;;;8.30;4.75;;;17.70;94.40;;;;;;5070617;28;20020;-75
2021/10/19 05:58:04;;;;;;;7.78;5.30;;;17.70;94.30;;;;;;5080690;28;20028;-75
2021/10/19 06:00:31;;;;;;;7.88;4.93;;;17.70;94.50;;;;;;5075912;28;20540;-75
2021/10/19 06:02:56;;;;;;;7.00;5.28;;;17.70;94.40;;;;;;5075904;28;20085;-75
2021/10/19 06:05:22;;;;;;;8.20;5.55;;;17.80;94.50;;;;;;5053480;28;20461;-74
2021/10/19 06:07:50;;;;;;;9.55;5.60;;;17.80;94.20;;;;;;5070622;28;20082;-75
2021/10/19 06:10:20;;;;;;;8.80;5.63;;;17.70;94.00;;;;;;5077827;28;20052;-75
2021/10/19 06:12:45;;;;;;;8.30;5.80;;;17.70;94.10;;;;;;5057670;28;20028;-74
2021/10/19 06:15:11;;;;;;;7.32;5.63;;;17.70;94.20;;;;;;5079361;28;20028;-74
2021/10/19 06:17:37;;;;;;;8.40;5.97;;;17.70;94.30;;;;;;5070892;28;20127;-75
2021/10/19 06:20:03;;;;;;;8.50;5.93;;;17.60;93.90;;;;;;5055777;28;20040;-73
2021/10/19 06:22:30;;;;;;;7.78;6.20;;;17.60;93.90;;;;;;5075571;28;20046;-73
2021/10/19 06:24:55;;;;;;;10.50;6.70;;;17.60;94.30;;;;;;5074123;28;20047;-73
2021/10/19 06:27:21;;;;;;;9.57;6.35;;;17.60;94.30;;;;;;5081802;28;20059;-75
2021/10/19 06:29:46;;;;;;;7.15;6.32;;;17.60;94.30;;;;;;5075741;28;20031;-75
2021/10/19 06:32:12;;;;;;;7.93;6.35;;;17.60;94.30;;;;;;5081020;28;20078;-73
2021/10/19 06:34:38;;;;;;;10.75;7.15;;;17.60;94.30;;;;;;5057776;28;20028;-75
2021/10/19 06:37:03;;;;;;;10.32;6.82;;;17.60;94.10;;;;;;5080286;28;20027;-75
2021/10/19 06:39:29;;;;;;;9.85;7.13;;;17.60;94.10;;;;;;5082168;28;20120;-75
2021/10/19 06:41:55;;;;;;;9.70;7.35;;;17.60;94.00;;;;;;5074169;28;20530;-75
2021/10/19 06:44:21;;;;;;;10.80;7.53;;;17.50;93.90;;;;;;5073323;28;20108;-75
2021/10/19 06:46:47;;;;;;;11.75;7.57;;;17.40;94.10;;;;;;5076025;28;20435;-74
2021/10/19 06:49:13;;;;;;;11.82;8.20;;;17.40;94.20;;;;;;5073421;28;20028;-74
2021/10/19 06:51:40;;;;;;;10.55;7.90;;;17.40;94.20;;;;;;5076563;28;20028;-75
2021/10/19 06:54:06;;;;;;;9.13;7.80;;;17.40;94.10;;;;;;5072868;28;20024;-75
2021/10/19 06:56:31;;;;;;;9.93;7.95;;;17.40;94.40;;;;;;5072900;28;20481;-75
2021/10/19 06:58:57;;;;;;;10.48;7.55;;;17.40;94.20;;;;;;5073476;28;20032;-73
2021/10/19 07:01:22;;;;;;;9.57;7.88;;;17.40;94.10;;;;;;5073539;28;20366;-74
2021/10/19 07:03:48;;;;;;;9.50;7.65;;;17.30;94.10;;;;;;5075103;28;20040;-74
2021/10/19 07:06:14;;;;;;;10.20;7.30;;;17.30;94.20;;;;;;5073142;28;20033;-74
2021/10/19 07:08:40;;;;;;;7.97;6.88;;;17.30;94.20;;;;;;5072001;28;20166;-77
2021/10/19 07:11:06;;;;;;;7.85;6.82;;;17.30;94.20;;;;;;5073333;28;20068;-77
2021/10/19 07:13:31;;;;;;;8.73;6.32;;;17.30;94.10;;;;;;5072513;28;20409;-76
2021/10/19 07:15:57;;;;;;;6.65;5.78;;;17.30;94.30;;;;;;5071752;28;20031;-76
2021/10/19 07:18:24;;;;;;;9.65;6.43;;;17.30;94.10;;;;;;5073267;28;20111;-77
2021/10/19 07:20:51;;;;;;;7.82;6.88;;;17.30;94.20;;;;;;5073591;28;20033;-78
2021/10/19 07:23:17;;;;;;;9.15;6.60;;;17.30;94.40;;;;;;5071767;28;20119;-77
2021/10/19 07:25:44;;;;;;;8.60;6.32;;;17.30;94.40;;;;;;5072857;28;20096;-78
2021/10/19 07:28:10;;;;;;;7.45;5.95;;;17.40;94.10;;;;;;5070270;28;20052;-79
2021/10/19 07:30:35;;;;;;;7.85;6.63;;;17.40;94.10;;;;;;5072356;28;20599;-80
2021/10/19 07:33:01;;;;;;;8.02;6.57;;;17.40;94.10;;;;;;5072032;28;20400;-79
2021/10/19 07:35:26;;;;;;;8.23;6.35;;;17.30;94.10;;;;;;5048147;28;20520;-80
2021/10/19 07:37:52;;;;;;;8.13;6.82;;;17.30;94.30;;;;;;5063881;28;20032;-79
2021/10/19 07:40:22;;;;;;;7.97;6.82;;;17.40;94.20;;;;;;5068374;28;20522;-80
2021/10/19 07:42:48;;;;;;;8.35;7.20;;;17.40;94.20;;;;;;5065486;28;21234;-80
2021/10/19 07:45:14;;;;;;;9.75;7.13;;;17.30;93.80;;;;;;5069473;28;20555;-80
2021/10/19 07:47:42;;;;;;;9.95;8.02;;;17.20;94.00;;;;;;5071302;28;20028;-78
2021/10/19 07:50:09;;;;;;;10.02;7.88;;;17.20;94.10;;;;;;5071313;28;20099;-79
2021/10/19 07:52:35;;;;;;;10.82;8.05;;;17.30;94.50;;;;;;5058528;28;20032;-79
2021/10/19 07:55:03;;;;;;;9.57;7.97;;;17.30;94.20;;;;;;5073019;28;20059;-79
2021/10/19 07:57:29;;;;;;;11.13;8.43;;;17.30;93.90;;;;;;5057394;28;20028;-80
2021/10/19 07:59:54;;;;;;;9.98;8.35;;;17.40;94.20;;;;;;5072094;28;20086;-80
2021/10/19 08:02:20;;;;;;;10.77;8.90;;;17.60;94.30;;;;;;5067108;28;20033;-79
2021/10/19 08:04:46;;;;;;;11.00;8.85;;;17.80;94.30;;;;;;5078609;28;20412;-79
2021/10/19 08:07:11;;;;;;;11.60;9.25;;;17.90;94.00;;;;;;5070739;28;20024;-79
2021/10/19 08:09:37;;;;;;;9.27;7.63;;;17.90;93.30;;;;;;5073268;28;20030;-80
2021/10/19 08:12:03;;;;;;;10.25;8.50;;;17.80;93.20;;;;;;5073122;28;20034;-79
2021/10/19 08:14:28;;;;;;;11.48;8.63;;;17.80;93.30;;;;;;5071994;28;20033;-80
2021/10/19 08:16:54;;;;;;;10.23;8.45;;;17.80;93.30;;;;;;5052816;28;20063;-81
2021/10/19 08:19:20;;;;;;;8.98;7.57;;;17.70;93.30;;;;;;5053383;28;20040;-82
2021/10/19 08:21:46;;;;;;;8.20;7.05;;;17.60;93.20;;;;;;5069666;28;20078;-81
2021/10/19 08:24:12;;;;;;;10.48;7.28;;;17.60;93.30;;;;;;5070859;28;20036;-82
2021/10/19 08:26:37;;;;;;;8.55;6.95;;;17.60;93.50;;;;;;5069918;28;20409;-82
2021/10/19 08:29:03;;;;;;;10.13;6.90;;;17.70;93.50;;;;;;5069898;28;20504;-82
2021/10/19 08:31:30;;;;;;;8.25;6.68;;;17.70;93.30;;;;;;5070346;28;20044;-82
2021/10/19 08:33:57;;;;;;;8.60;6.60;;;17.80;93.40;;;;;;5051070;28;20036;-82
2021/10/19 08:36:22;;;;;;;9.88;6.13;;;18.10;93.50;;;;;;5069258;28;20126;-84
2021/10/19 08:38:49;;;;;;;8.38;6.03;;;18.40;93.50;;;;;;5077381;28;20405;-84
2021/10/19 08:41:15;;;;;;;7.68;5.20;;;18.70;92.80;;;;;;5071333;28;20041;-84
2021/10/19 08:43:42;;;;;;;6.78;5.32;;;19.00;92.10;;;;;;5072754;28;20021;-85
2021/10/19 08:46:13;;;;;;;5.78;5.00;;;19.50;92.10;;;;;;5070466;28;20024;-86
2021/10/19 08:48:40;;;;;;;5.72;4.93;;;19.90;91.30;;;;;;5070036;28;20103;-83
2021/10/19 08:51:06;;;;;;;4.80;4.25;;;20.30;90.80;;;;;;5081533;28;20028;-84
2021/10/19 08:53:41;;;;;;;4.90;4.40;;;20.40;89.20;;;;;;5077073;28;20044;-84
2021/10/19 08:56:08;;;;;;;7.10;4.35;;;20.60;89.20;;;;;;5070546;28;20029;-84
2021/10/19 08:58:37;;;;;;;4.40;3.92;;;20.90;88.40;;;;;;5071137;28;20036;-85
2021/10/19 09:01:04;;;;;;;4.03;3.63;;;21.10;86.00;;;;;;5036922;28;20041;-84
2021/10/19 09:03:30;;;;;;;5.47;3.60;;;21.30;86.30;;;;;;5071667;28;20017;-84
2021/10/19 09:05:56;;;;;;;4.32;3.67;;;21.60;88.00;;;;;;5060761;28;20386;-84
2021/10/19 09:08:24;;;;;;;4.60;3.17;;;21.60;81.60;;;;;;5059072;28;20067;-83
2021/10/19 09:10:50;;;;;;;5.38;3.35;;;21.70;82.60;;;;;;5060882;28;20017;-83
2021/10/19 09:13:17;;;;;;;4.53;3.50;;;21.90;83.00;;;;;;5070558;28;20062;-84
2021/10/19 09:15:45;;;;;;;3.78;3.30;;;22.10;82.80;;;;;;5079499;28;20029;-83
2021/10/19 09:18:13;;;;;;;4.07;3.13;;;22.40;82.10;;;;;;5063085;28;20029;-83
2021/10/19 09:20:41;;;;;;;3.60;3.30;;;22.60;79.70;;;;;;5058670;28;20037;-83
2021/10/19 09:23:08;;;;;;;3.60;3.17;;;22.60;77.20;;;;;;5062299;28;20538;-84
2021/10/19 09:25:37;;;;;;;3.78;3.15;;;22.60;77.90;;;;;;5070382;28;20043;-84
2021/10/19 09:28:05;;;;;;;4.93;3.50;;;22.70;77.90;;;;;;5054650;28;20040;-84
2021/10/19 09:30:39;;;;;;;3.28;2.95;;;23.00;78.20;;;;;;5070466;28;20020;-83
2021/10/19 09:33:07;;;;;;;3.60;3.25;;;23.10;76.90;;;;;;5072584;28;20021;-83
2021/10/19 09:35:34;;;;;;;3.63;3.33;;;23.10;76.00;;;;;;5068496;28;20033;-83
2021/10/19 09:38:04;;;;;;;3.42;3.13;;;23.20;74.50;;;;;;5073108;28;20961;-84
2021/10/19 09:40:32;;;;;;;4.28;3.50;;;23.40;75.30;;;;;;5061501;28;20052;-83
2021/10/19 09:43:03;;;;;;;3.30;3.00;;;23.50;73.10;;;;;;5058749;28;20075;-83
2021/10/19 09:45:29;;;;;;;4.80;4.03;;;23.60;74.30;;;;;;5065321;28;20111;-83
2021/10/19 09:47:57;;;;;;;3.88;3.58;;;23.30;70.30;;;;;;5073971;28;20112;-83
2021/10/19 09:50:24;;;;;;;5.47;3.78;;;23.30;71.30;;;;;;5076938;28;20020;-82
2021/10/19 09:52:51;;;;;;;3.75;3.35;;;23.30;70.50;;;;;;5084046;28;20029;-83
2021/10/19 09:55:17;;;;;;;4.57;4.18;;;23.40;71.30;;;;;;5058910;28;20078;-83
2021/10/19 09:57:43;;;;;;;5.65;4.05;;;23.60;69.60;;;;;;5057313;28;20368;-81
2021/10/19 10:00:11;;;;;;;4.18;3.65;;;23.80;70.90;;;;;;5075838;28;20037;-82
2021/10/19 10:02:38;;;;;;;5.07;4.22;;;24.10;70.50;;;;;;5076108;28;20082;-76
2021/10/19 10:05:05;;;;;;;4.38;3.97;;;23.90;68.50;;;;;;5070412;28;20024;-78
2021/10/19 10:07:37;;;;;;;4.88;4.45;;;24.10;70.60;;;;;;5070699;28;20081;-78
2021/10/19 10:10:04;;;;;;;5.68;4.80;;;24.10;68.30;;;;;;5071526;28;21044;-64
2021/10/19 10:12:31;;;;;;;6.18;4.72;;;24.10;68.80;;;;;;5059301;28;20026;-60
2021/10/19 10:14:57;;;;;;;4.95;4.47;;;24.30;68.60;;;;;;5071859;28;20087;-63
2021/10/19 10:17:22;;;;;;;5.40;4.90;;;24.20;68.10;;;;;;5072946;28;20028;-63
2021/10/19 10:19:49;;;;;;;4.50;4.10;;;24.20;66.90;;;;;;5088302;28;20443;-63
2021/10/19 10:22:31;;;;;;;5.82;4.53;;;24.30;68.80;;;;;;5055027;28;20066;-63
2021/10/19 10:25:08;;;;;;;5.63;4.78;;;24.80;69.10;;;;;;5082599;28;20040;-63
2021/10/19 10:27:34;;;;;;;5.22;4.72;;;24.70;66.50;;;;;;5056901;28;20029;-74
2021/10/19 10:30:00;;;;;;;6.70;5.10;;;24.50;64.50;;;;;;5070162;28;20037;-73
2021/10/19 10:32:36;;;;;;;4.95;4.45;;;24.60;64.50;;;;;;5073577;28;20032;-73
2021/10/19 10:35:10;;;;;;;6.07;4.70;;;24.70;67.50;;;;;;5070258;28;20025;-73
2021/10/19 10:37:38;;;;;;;6.65;4.97;;;24.70;66.70;;;;;;5069483;28;20027;-72
2021/10/19 10:40:09;;;;;;;5.30;4.72;;;25.00;64.70;;;;;;5070756;28;20064;-74
2021/10/19 10:42:39;;;;;;;4.68;4.15;;;25.20;67.30;;;;;;5072970;28;20032;-74
2021/10/19 10:45:30;;;;;;;5.13;4.63;;;25.30;64.90;;;;;;5050958;28;20028;-74
2021/10/19 10:48:04;;;;;;;5.60;5.10;;;25.50;67.20;;;;;;5071203;28;20773;-74
2021/10/19 10:50:31;;;;;;;7.03;5.30;;;25.70;64.20;;;;;;5072193;28;20562;-74
2021/10/19 10:53:04;;;;;;;6.03;5.35;;;26.20;62.60;;;;;;5073583;28;20025;-73
2021/10/19 10:55:44;;;;;;;5.00;4.50;;;26.50;60.50;;;;;;5073174;28;20028;-74
2021/10/19 10:58:10;;;;;;;6.47;5.10;;;26.30;64.20;;;;;;5056001;28;20032;-75
2021/10/19 11:00:36;;;;;;;5.20;4.70;;;26.30;63.00;;;;;;5059046;28;20046;-73
2021/10/19 11:03:14;;;;;;;5.32;4.72;;;26.90;62.10;;;;;;5061705;28;20090;-73
2021/10/19 11:05:58;;;;;;;6.10;4.53;;;27.60;63.90;;;;;;5068738;28;20081;-73
2021/10/19 11:08:29;;;;;;;6.95;4.40;;;28.10;63.30;;;;;;5073124;28;20086;-74
2021/10/19 11:11:17;;;;;;;5.03;4.28;;;28.20;57.60;;;;;;5071447;28;20035;-73
2021/10/19 11:13:48;;;;;;;7.57;4.70;;;28.00;59.50;;;;;;5066804;28;20028;-74
2021/10/19 11:16:14;;;;;;;7.15;4.97;;;27.60;57.40;;;;;;5060747;28;20024;-74
2021/10/19 11:18:40;;;;;;;6.38;4.60;;;27.60;57.60;;;;;;5057916;28;20033;-70
2021/10/19 11:21:05;;;;;;;6.72;4.70;;;27.70;58.30;;;;;;5070980;28;20621;-70
2021/10/19 11:23:36;;;;;;;6.35;5.10;;;27.80;54.40;;;;;;5071910;28;20028;-70
2021/10/19 11:26:02;;;;;;;5.43;4.80;;;27.80;54.50;;;;;;5069146;28;20020;-69
2021/10/19 11:28:28;;;;;;;5.22;4.68;;;27.70;56.10;;;;;;5071292;28;20089;-69
2021/10/19 11:30:54;;;;;;;5.90;5.00;;;27.30;56.90;;;;;;5071396;28;20017;-69
2021/10/19 11:33:21;;;;;;;6.45;4.47;;;26.60;55.50;;;;;;5071903;28;20508;-71
2021/10/19 11:35:46;;;;;;;6.93;4.68;;;26.20;58.40;;;;;;5052864;28;20116;-69
2021/10/19 11:38:12;;;;;;;5.97;4.57;;;26.40;60.10;;;;;;5073228;28;20463;-70
2021/10/19 11:40:38;;;;;;;5.72;4.18;;;26.50;58.30;;;;;;5052462;28;20046;-68
2021/10/19 11:43:03;;;;;;;5.97;4.65;;;26.40;59.30;;;;;;5070444;28;20402;-70
2021/10/19 11:45:29;;;;;;;5.00;4.47;;;26.50;58.60;;;;;;5071525;28;20055;-68
2021/10/19 11:48:00;;;;;;;4.88;4.35;;;26.50;59.20;;;;;;5072135;28;20512;-68
2021/10/19 11:50:32;;;;;;;5.88;4.32;;;26.40;59.60;;;;;;5071636;28;20056;-70
2021/10/19 11:53:00;;;;;;;7.22;4.25;;;26.20;58.00;;;;;;5072062;28;20077;-70
2021/10/19 11:55:28;;;;;;;4.43;3.95;;;26.20;58.00;;;;;;5070548;28;20027;-71
2021/10/19 11:57:54;;;;;;;5.03;4.05;;;26.20;59.50;;;;;;5072377;28;20029;-71
2021/10/19 12:00:22;;;;;;;5.03;3.70;;;26.30;59.10;;;;;;5071692;28;20039;-71
2021/10/19 12:02:58;;;;;;;4.30;3.90;;;26.40;57.70;;;;;;5061811;28;20050;-74
2021/10/19 12:05:26;;;;;;;4.93;4.28;;;26.40;59.80;;;;;;5074062;28;20568;-73
2021/10/19 12:07:54;;;;;;;4.40;3.75;;;26.20;58.20;;;;;;5047958;28;20032;-76
2021/10/19 12:10:26;;;;;;;4.75;3.70;;;26.30;58.60;;;;;;5070852;28;20021;-70
2021/10/19 12:12:56;;;;;;;4.47;3.55;;;26.20;60.00;;;;;;5071767;28;20026;-71
2021/10/19 12:15:23;;;;;;;4.32;3.55;;;26.50;60.30;;;;;;5059961;28;20016;-78
2021/10/19 12:18:01;;;;;;;6.20;4.00;;;27.00;59.60;;;;;;5068102;28;20024;-77
2021/10/19 12:20:29;;;;;;;3.80;3.40;;;27.40;59.70;;;;;;5069426;28;20114;-74
2021/10/19 12:23:10;;;;;;;4.47;3.65;;;27.80;58.10;;;;;;5070106;28;20162;-74
2021/10/19 12:25:43;;;;;;;4.95;3.65;;;28.10;57.90;;;;;;5082831;28;20033;-73
2021/10/19 12:28:17;;;;;;;4.32;3.88;;;28.30;55.60;;;;;;5070059;28;20016;-73
2021/10/19 12:30:42;;;;;;;4.20;3.80;;;28.20;55.10;;;;;;5066162;28;20051;-73
2021/10/19 12:33:09;;;;;;;4.68;3.70;;;28.40;55.70;;;;;;5070474;28;20066;-73
2021/10/19 12:35:35;;;;;;;5.90;3.92;;;29.00;53.10;;;;;;5063205;28;20029;-75
2021/10/19 12:38:11;;;;;;;4.35;3.88;;;29.50;55.10;;;;;;5060989;28;20039;-73
2021/10/19 12:40:43;;;;;;;4.78;3.88;;;29.80;52.80;;;;;;5056481;28;20044;-77
2021/10/19 12:43:09;;;;;;;5.03;3.92;;;30.00;53.30;;;;;;5070053;28;20047;-77